createdAt,value
2023-02-04T00:01:49.160Z,1.44
2023-02-04T00:04:15.463Z,1.24
2023-02-04T00:06:41.745Z,1.31
2023-02-04T00:09:08.038Z,1.26
2023-02-04T00:11:34.306Z,1.46
2023-02-04T00:14:00.669Z,1.27
2023-02-04T00:16:26.993Z,1.36
2023-02-04T00:18:53.294Z,1.19
2023-02-04T00:21:19.531Z,1.18
2023-02-04T00:23:45.786Z,1.29
2023-02-04T00:26:12.090Z,1.46
2023-02-04T00:28:38.430Z,1.18
2023-02-04T00:31:04.726Z,1.22
2023-02-04T00:33:31.044Z,1.26
2023-02-04T00:35:57.312Z,1.04
2023-02-04T00:38:23.574Z,1.22
2023-02-04T00:40:49.829Z,1.28
2023-02-04T00:43:16.108Z,1.17
2023-02-04T00:45:42.669Z,1.22
2023-02-04T00:48:08.941Z,1.10
2023-02-04T00:50:35.206Z,1.28
2023-02-04T00:53:01.522Z,1.15
2023-02-04T00:55:27.807Z,1.17
2023-02-04T00:57:54.088Z,1.11
2023-02-04T01:00:20.403Z,1.12
2023-02-04T01:02:46.724Z,1.13
2023-02-04T01:05:13.052Z,1.14
2023-02-04T01:07:39.350Z,1.14
2023-02-04T01:10:05.594Z,1.14
2023-02-04T01:12:31.885Z,1.17
2023-02-04T01:14:58.448Z,1.09
2023-02-04T01:17:24.703Z,1.09
2023-02-04T01:19:50.975Z,1.22
2023-02-04T01:22:17.235Z,1.15
2023-02-04T01:24:43.487Z,1.15
2023-02-04T01:27:09.734Z,1.14
2023-02-04T01:29:35.987Z,1.27
2023-02-04T01:32:02.321Z,1.12
2023-02-04T01:34:28.614Z,1.19
2023-02-04T01:36:54.881Z,1.17
2023-02-04T01:39:21.159Z,1.13
2023-02-04T01:41:47.421Z,1.12
2023-02-04T01:44:13.946Z,1.19
2023-02-04T01:46:40.440Z,1.17
2023-02-04T01:49:06.719Z,1.21
2023-02-04T01:51:32.982Z,1.04
2023-02-04T01:53:59.313Z,1.12
2023-02-04T01:56:25.674Z,1.13
2023-02-04T01:58:51.920Z,1.10
2023-02-04T02:01:18.237Z,1.06
2023-02-04T02:03:44.539Z,1.03
2023-02-04T02:06:10.823Z,1.11
2023-02-04T02:08:37.152Z,1.10
2023-02-04T02:11:03.421Z,0.93
2023-02-04T02:13:29.881Z,1.04
2023-02-04T02:15:56.151Z,1.05
2023-02-04T02:18:22.415Z,1.13
2023-02-04T02:20:48.700Z,1.12
2023-02-04T02:23:15.004Z,0.89
2023-02-04T02:25:41.256Z,1.18
2023-02-04T02:28:07.590Z,1.13
2023-02-04T02:30:34.262Z,1.05
2023-02-04T02:33:00.714Z,1.03
2023-02-04T02:35:26.978Z,1.03
2023-02-04T02:37:53.512Z,1.03
2023-02-04T02:40:19.781Z,1.08
2023-02-04T02:42:46.177Z,1.00
2023-02-04T02:45:12.480Z,0.96
2023-02-04T02:47:38.755Z,1.07
2023-02-04T02:50:05.260Z,0.99
2023-02-04T02:52:31.691Z,1.04
2023-02-04T02:54:57.965Z,0.96
2023-02-04T02:57:24.231Z,0.95
2023-02-04T02:59:50.517Z,0.98
2023-02-04T03:02:16.815Z,1.06
2023-02-04T03:04:43.101Z,0.98
2023-02-04T03:07:09.370Z,0.90
2023-02-04T03:09:35.647Z,0.94
2023-02-04T03:12:01.894Z,0.93
2023-02-04T03:14:28.150Z,0.93
2023-02-04T03:16:54.418Z,0.95
2023-02-04T03:19:20.701Z,1.02
2023-02-04T03:21:46.985Z,0.96
2023-02-04T03:24:13.366Z,0.97
2023-02-04T03:26:39.640Z,1.04
2023-02-04T03:29:06.175Z,1.04
2023-02-04T03:31:32.829Z,0.92
2023-02-04T03:33:59.470Z,0.91
2023-02-04T03:36:25.738Z,0.89
2023-02-04T03:38:51.986Z,0.92
2023-02-04T03:41:18.238Z,0.97
2023-02-04T03:43:44.497Z,0.98
2023-02-04T03:46:10.814Z,0.80
2023-02-04T03:48:37.115Z,0.92
2023-02-04T03:51:03.378Z,0.83
2023-02-04T03:53:29.645Z,0.86
2023-02-04T03:55:55.906Z,0.88
2023-02-04T03:58:22.195Z,0.83
2023-02-04T04:00:48.436Z,0.94
2023-02-04T04:03:14.693Z,0.79
2023-02-04T04:05:40.956Z,0.85
2023-02-04T04:08:07.203Z,0.86
2023-02-04T04:10:33.717Z,0.74
2023-02-04T04:13:00.112Z,0.76
2023-02-04T04:15:26.392Z,0.83
2023-02-04T04:17:52.634Z,0.78
2023-02-04T04:20:18.892Z,0.74
2023-02-04T04:22:45.174Z,0.74
2023-02-04T04:25:11.459Z,0.70
2023-02-04T04:27:37.751Z,0.87
2023-02-04T04:30:04.097Z,0.76
2023-02-04T04:32:30.356Z,0.82
2023-02-04T04:34:56.595Z,0.79
2023-02-04T04:37:22.846Z,0.77
2023-02-04T04:39:49.080Z,0.76
2023-02-04T04:42:15.365Z,0.78
2023-02-04T04:44:41.874Z,0.76
2023-02-04T04:47:08.123Z,0.82
2023-02-04T04:49:34.382Z,0.75
2023-02-04T04:52:00.630Z,0.70
2023-02-04T04:54:26.873Z,0.80
2023-02-04T04:56:53.154Z,0.79
2023-02-04T04:59:19.419Z,0.84
2023-02-04T05:01:45.672Z,0.76
2023-02-04T05:04:12.006Z,0.73
2023-02-04T05:06:38.291Z,0.66
2023-02-04T05:09:04.558Z,0.74
2023-02-04T05:11:30.811Z,0.66
2023-02-04T05:13:57.064Z,0.77
2023-02-04T05:16:23.398Z,0.65
2023-02-04T05:18:49.696Z,0.65
2023-02-04T05:21:15.957Z,0.79
2023-02-04T05:23:42.220Z,0.73
2023-02-04T05:26:08.514Z,0.67
2023-02-04T05:28:34.781Z,0.74
2023-02-04T05:31:01.087Z,0.70
2023-02-04T05:33:27.374Z,0.67
2023-02-04T05:35:53.622Z,0.56
2023-02-04T05:38:19.888Z,0.65
2023-02-04T05:40:46.130Z,0.69
2023-02-04T05:43:12.469Z,0.77
2023-02-04T05:45:38.776Z,0.60
2023-02-04T05:48:05.093Z,0.67
2023-02-04T05:50:31.745Z,0.69
2023-02-04T05:52:58.155Z,0.63
2023-02-04T05:55:24.448Z,0.69
2023-02-04T05:57:50.706Z,0.66
2023-02-04T06:00:16.994Z,0.68
2023-02-04T06:02:43.263Z,0.60
2023-02-04T06:05:09.507Z,0.55
2023-02-04T06:07:35.759Z,0.71
2023-02-04T06:10:02.016Z,0.58
2023-02-04T06:12:28.275Z,0.60
2023-02-04T06:14:54.545Z,0.56
2023-02-04T06:17:21.093Z,0.57
2023-02-04T06:19:47.356Z,0.66
2023-02-04T06:22:13.710Z,0.61
2023-02-04T06:24:39.983Z,0.61
2023-02-04T06:27:06.230Z,0.58
2023-02-04T06:29:32.516Z,0.60
2023-02-04T06:31:58.967Z,0.66
2023-02-04T06:34:25.306Z,0.55
2023-02-04T06:36:51.593Z,0.56
2023-02-04T06:39:17.876Z,0.61
2023-02-04T06:41:44.164Z,0.55
2023-02-04T06:44:10.446Z,0.49
2023-02-04T06:46:36.699Z,0.58
2023-02-04T06:49:02.950Z,0.64
2023-02-04T06:51:29.468Z,0.54
2023-02-04T06:53:55.712Z,0.49
2023-02-04T06:56:22.232Z,0.60
2023-02-04T06:58:48.502Z,0.58
2023-02-04T07:01:14.826Z,0.56
2023-02-04T07:03:41.127Z,0.58
2023-02-04T07:06:07.384Z,0.55
2023-02-04T07:08:33.634Z,0.55
2023-02-04T07:10:59.938Z,0.47
2023-02-04T07:13:26.208Z,0.53
2023-02-04T07:15:52.717Z,0.63
2023-02-04T07:18:19.007Z,0.60
2023-02-04T07:20:45.330Z,0.57
2023-02-04T07:23:11.824Z,0.60
2023-02-04T07:25:38.314Z,0.57
2023-02-04T07:28:04.598Z,0.61
2023-02-04T07:30:31.362Z,0.55
2023-02-04T07:32:57.822Z,0.45
2023-02-04T07:35:24.137Z,0.57
2023-02-04T07:37:50.421Z,0.55
2023-02-04T07:40:16.686Z,0.57
2023-02-04T07:42:42.948Z,0.49
2023-02-04T07:45:09.223Z,0.51
2023-02-04T07:47:35.478Z,0.55
2023-02-04T07:50:01.716Z,0.50
2023-02-04T07:52:27.991Z,0.55
2023-02-04T07:54:54.251Z,0.52
2023-02-04T07:57:20.635Z,0.51
2023-02-04T07:59:46.925Z,0.57
2023-02-04T08:02:13.200Z,0.58
2023-02-04T08:04:39.457Z,0.52
2023-02-04T08:07:05.697Z,0.44
2023-02-04T08:09:31.989Z,0.51
2023-02-04T08:11:58.296Z,0.60
2023-02-04T08:14:24.558Z,0.50
2023-02-04T08:16:50.812Z,0.51
2023-02-04T08:19:17.092Z,0.54
2023-02-04T08:21:43.343Z,0.51
2023-02-04T08:24:09.622Z,0.54
2023-02-04T08:26:35.901Z,0.49
2023-02-04T08:29:02.168Z,0.48
2023-02-04T08:31:28.563Z,0.52
2023-02-04T08:33:55.181Z,0.45
2023-02-04T08:36:21.425Z,0.47
2023-02-04T08:38:47.800Z,0.53
2023-02-04T08:41:14.278Z,0.56
2023-02-04T08:43:40.550Z,0.56
2023-02-04T08:46:07.002Z,0.49
2023-02-04T08:48:33.337Z,0.48
2023-02-04T08:50:59.613Z,0.63
2023-02-04T08:53:26.016Z,0.54
2023-02-04T08:55:52.279Z,0.47
2023-02-04T08:58:18.692Z,0.47
2023-02-04T09:00:45.237Z,0.52
2023-02-04T09:03:11.566Z,0.57
2023-02-04T09:05:37.812Z,0.59
2023-02-04T09:08:04.086Z,0.58
2023-02-04T09:10:30.621Z,0.60
2023-02-04T09:12:57.042Z,0.52
2023-02-04T09:15:23.303Z,0.54
2023-02-04T09:17:49.578Z,0.49
2023-02-04T09:20:15.905Z,0.58
2023-02-04T09:22:42.168Z,0.45
2023-02-04T09:25:08.540Z,0.51
2023-02-04T09:27:34.846Z,0.47
2023-02-04T09:30:01.145Z,0.50
2023-02-04T09:32:27.678Z,0.55
2023-02-04T09:34:53.941Z,0.50
2023-02-04T09:37:20.187Z,0.66
2023-02-04T09:39:46.697Z,0.55
2023-02-04T09:42:13.038Z,0.57
2023-02-04T09:44:39.302Z,0.54
2023-02-04T09:47:05.697Z,0.60
2023-02-04T09:49:31.978Z,0.55
2023-02-04T09:51:58.523Z,0.61
2023-02-04T09:54:25.021Z,0.52
2023-02-04T09:56:51.405Z,0.62
2023-02-04T09:59:17.663Z,0.50
2023-02-04T10:01:43.973Z,0.52
2023-02-04T10:04:10.239Z,0.52
2023-02-04T10:06:36.510Z,0.62
2023-02-04T10:09:02.812Z,0.54
2023-02-04T10:11:32.739Z,0.54
2023-02-04T10:13:58.991Z,0.47
2023-02-04T10:16:25.320Z,0.53
2023-02-04T10:18:51.649Z,0.67
2023-02-04T10:21:17.901Z,0.45
2023-02-04T10:23:44.152Z,0.55
2023-02-04T10:26:10.392Z,0.52
2023-02-04T10:28:36.691Z,0.60
2023-02-04T10:31:03.141Z,0.44
2023-02-04T10:33:29.469Z,0.48
2023-02-04T10:35:55.751Z,0.56
2023-02-04T10:38:22.002Z,0.57
2023-02-04T10:40:48.276Z,0.54
2023-02-04T10:43:14.574Z,0.44
2023-02-04T10:45:41.093Z,0.59
2023-02-04T10:48:09.585Z,0.60
2023-02-04T10:50:35.831Z,0.55
2023-02-04T10:53:02.105Z,0.51
2023-02-04T10:55:28.630Z,0.52
2023-02-04T10:57:54.931Z,0.57
2023-02-04T11:00:21.202Z,0.42
2023-02-04T11:02:47.476Z,0.49
2023-02-04T11:05:13.718Z,0.49
2023-02-04T11:07:39.968Z,0.54
2023-02-04T11:10:06.488Z,0.55
2023-02-04T11:12:32.779Z,0.67
2023-02-04T11:14:59.065Z,0.51
2023-02-04T11:17:25.316Z,0.48
2023-02-04T11:19:51.571Z,0.47
2023-02-04T11:22:17.882Z,0.50
2023-02-04T11:24:44.151Z,0.44
2023-02-04T11:27:10.427Z,0.49
2023-02-04T11:29:36.909Z,0.52
2023-02-04T11:32:03.290Z,0.52
2023-02-04T11:34:29.630Z,0.63
2023-02-04T11:36:55.911Z,0.50
2023-02-04T11:39:22.174Z,0.50
2023-02-04T11:41:48.585Z,0.48
2023-02-04T11:44:14.855Z,0.52
2023-02-04T11:46:41.141Z,0.46
2023-02-04T11:49:07.498Z,0.43
2023-02-04T11:51:33.757Z,0.48
2023-02-04T11:54:00.025Z,0.53
2023-02-04T11:56:26.291Z,0.47
2023-02-04T11:58:52.546Z,0.54
2023-02-04T12:01:18.815Z,0.55
2023-02-04T12:03:45.365Z,0.45
2023-02-04T12:06:11.922Z,0.44
2023-02-04T12:08:38.197Z,0.45
2023-02-04T12:11:04.871Z,0.43
2023-02-04T12:13:31.141Z,0.48
2023-02-04T12:15:57.433Z,0.41
2023-02-04T12:18:23.838Z,0.38
2023-02-04T12:20:50.145Z,0.53
2023-02-04T12:23:16.658Z,0.44
2023-02-04T12:25:42.929Z,0.48
2023-02-04T12:28:09.290Z,0.45
2023-02-04T12:30:35.588Z,0.42
2023-02-04T12:33:01.873Z,0.40
2023-02-04T12:35:28.195Z,0.43
2023-02-04T12:37:54.501Z,0.44
2023-02-04T12:40:21.019Z,0.38
2023-02-04T12:42:47.501Z,0.55
2023-02-04T12:45:13.761Z,0.48
2023-02-04T12:47:40.059Z,0.49
2023-02-04T12:50:06.326Z,0.41
2023-02-04T12:52:32.589Z,0.44
2023-02-04T12:54:59.111Z,0.52
2023-02-04T12:57:25.350Z,0.44
2023-02-04T12:59:51.603Z,0.48
2023-02-04T13:02:18.073Z,0.45
2023-02-04T13:04:44.339Z,0.43
2023-02-04T13:07:10.583Z,0.38
2023-02-04T13:09:36.831Z,0.40
2023-02-04T13:12:03.102Z,0.49
2023-02-04T13:14:29.356Z,0.47
2023-02-04T13:16:55.626Z,0.42
2023-02-04T13:19:21.881Z,0.45
2023-02-04T13:21:48.386Z,0.38
2023-02-04T13:24:14.908Z,0.42
2023-02-04T13:26:41.176Z,0.46
2023-02-04T13:29:07.420Z,0.47
2023-02-04T13:31:33.702Z,0.44
2023-02-04T13:33:59.974Z,0.37
2023-02-04T13:36:26.253Z,0.40
2023-02-04T13:38:52.521Z,0.39
2023-02-04T13:41:18.791Z,0.44
2023-02-04T13:43:45.070Z,0.36
2023-02-04T13:46:11.376Z,0.35
2023-02-04T13:48:37.947Z,0.38
2023-02-04T13:51:04.192Z,0.36
2023-02-04T13:53:30.466Z,0.40
2023-02-04T13:55:56.734Z,0.39
2023-02-04T13:58:23.056Z,0.40
2023-02-04T14:00:49.351Z,0.36
2023-02-04T14:03:15.620Z,0.39
2023-02-04T14:05:41.880Z,0.42
2023-02-04T14:08:08.143Z,0.45
2023-02-04T14:10:36.065Z,0.42
2023-02-04T14:13:03.829Z,0.35
2023-02-04T14:15:30.099Z,0.42
2023-02-04T14:17:56.349Z,0.40
2023-02-04T14:20:22.623Z,0.36
2023-02-04T14:22:48.892Z,0.38
2023-02-04T14:25:15.146Z,0.43
2023-02-04T14:27:41.427Z,0.41
2023-02-04T14:30:07.702Z,0.42
2023-02-04T14:32:34.101Z,0.37
2023-02-04T14:35:00.535Z,0.38
2023-02-04T14:37:26.797Z,0.45
2023-02-04T14:39:53.046Z,0.55
2023-02-04T14:42:19.305Z,0.37
2023-02-04T14:44:45.582Z,0.34
2023-02-04T14:47:11.838Z,0.38
2023-02-04T14:49:38.224Z,0.34
2023-02-04T14:52:04.477Z,0.40
2023-02-04T14:54:30.749Z,0.33
2023-02-04T14:56:57.141Z,0.36
2023-02-04T14:59:23.494Z,0.32
2023-02-04T15:01:49.771Z,0.34
2023-02-04T15:04:16.065Z,0.38
2023-02-04T15:06:42.420Z,0.45
2023-02-04T15:09:08.673Z,0.43
2023-02-04T15:11:34.935Z,0.29
2023-02-04T15:14:01.327Z,0.37
2023-02-04T15:16:27.693Z,0.40
2023-02-04T15:18:54.200Z,0.41
2023-02-04T15:21:20.459Z,0.39
2023-02-04T15:23:46.727Z,0.34
2023-02-04T15:26:13.102Z,0.39
2023-02-04T15:28:39.370Z,0.33
2023-02-04T15:31:05.931Z,0.46
2023-02-04T15:33:32.217Z,0.33
2023-02-04T15:35:58.470Z,0.39
2023-02-04T15:38:24.728Z,0.38
2023-02-04T15:40:50.976Z,0.35
2023-02-04T15:43:17.242Z,0.34
2023-02-04T15:45:43.685Z,0.35
2023-02-04T15:48:09.971Z,0.37
2023-02-04T15:50:36.228Z,0.32
2023-02-04T15:53:02.474Z,0.37
2023-02-04T15:55:28.759Z,0.37
2023-02-04T15:57:55.032Z,0.43
2023-02-04T16:00:21.331Z,0.44
2023-02-04T16:02:47.818Z,0.40
2023-02-04T16:05:14.116Z,0.42
2023-02-04T16:07:40.389Z,0.34
2023-02-04T16:10:06.657Z,0.35
2023-02-04T16:12:32.927Z,0.29
2023-02-04T16:14:59.185Z,0.42
2023-02-04T16:17:25.694Z,0.36
2023-02-04T16:19:51.953Z,0.43
2023-02-04T16:22:18.202Z,0.39
2023-02-04T16:24:44.462Z,0.34
2023-02-04T16:27:10.814Z,0.37
2023-02-04T16:29:37.060Z,0.39
2023-02-04T16:32:03.310Z,0.31
2023-02-04T16:34:29.568Z,0.43
2023-02-04T16:36:55.821Z,0.36
2023-02-04T16:39:22.066Z,0.31
2023-02-04T16:41:48.342Z,0.41
2023-02-04T16:44:14.597Z,0.44
2023-02-04T16:46:40.926Z,0.38
2023-02-04T16:49:07.277Z,0.45
2023-02-04T16:51:33.537Z,0.42
2023-02-04T16:53:59.836Z,0.39
2023-02-04T16:56:26.357Z,0.35
2023-02-04T16:58:52.614Z,0.41
2023-02-04T17:01:18.918Z,0.45
2023-02-04T17:03:45.331Z,0.43
2023-02-04T17:06:11.621Z,0.44
2023-02-04T17:08:37.929Z,0.45
2023-02-04T17:11:04.423Z,0.50
2023-02-04T17:13:30.702Z,0.38
2023-02-04T17:15:56.998Z,0.39
2023-02-04T17:18:23.294Z,0.40
2023-02-04T17:20:49.553Z,0.50
2023-02-04T17:23:15.882Z,0.40
2023-02-04T17:25:42.151Z,0.47
2023-02-04T17:28:08.474Z,0.49
2023-02-04T17:30:34.818Z,0.41
2023-02-04T17:33:01.103Z,0.41
2023-02-04T17:35:27.393Z,0.40
2023-02-04T17:37:53.672Z,0.49
2023-02-04T17:40:20.160Z,0.59
2023-02-04T17:42:46.437Z,0.43
2023-02-04T17:45:12.985Z,0.44
2023-02-04T17:47:39.255Z,0.43
2023-02-04T17:50:05.870Z,0.41
2023-02-04T17:52:32.134Z,0.44
2023-02-04T17:54:58.441Z,0.45
2023-02-04T17:57:24.717Z,0.44
2023-02-04T17:59:50.980Z,0.47
2023-02-04T18:02:17.554Z,0.56
2023-02-04T18:04:44.172Z,0.56
2023-02-04T18:07:10.456Z,0.50
2023-02-04T18:09:36.726Z,0.48
2023-02-04T18:12:02.991Z,0.59
2023-02-04T18:14:29.269Z,0.56
2023-02-04T18:16:55.510Z,0.42
2023-02-04T18:19:21.825Z,0.61
2023-02-04T18:21:48.095Z,0.63
2023-02-04T18:24:14.474Z,0.57
2023-02-04T18:26:40.752Z,0.62
2023-02-04T18:29:07.034Z,0.48
2023-02-04T18:31:33.353Z,0.58
2023-02-04T18:33:59.655Z,0.57
2023-02-04T18:36:26.165Z,0.48
2023-02-04T18:38:52.458Z,0.64
2023-02-04T18:41:18.709Z,0.52
2023-02-04T18:43:44.981Z,0.55
2023-02-04T18:46:11.281Z,0.58
2023-02-04T18:48:37.535Z,0.55
2023-02-04T18:51:03.795Z,0.54
2023-02-04T18:53:30.287Z,0.58
2023-02-04T18:55:56.842Z,0.50
2023-02-04T18:58:23.124Z,0.60
2023-02-04T19:00:49.512Z,0.56
2023-02-04T19:03:15.808Z,0.52
2023-02-04T19:05:42.077Z,0.54
2023-02-04T19:08:08.348Z,0.41
2023-02-04T19:10:34.965Z,0.52
2023-02-04T19:13:01.549Z,0.45
2023-02-04T19:15:27.823Z,0.49
2023-02-04T19:17:54.081Z,0.56
2023-02-04T19:20:20.341Z,0.52
2023-02-04T19:22:46.598Z,0.43
2023-02-04T19:25:13.078Z,0.46
2023-02-04T19:27:39.669Z,0.59
2023-02-04T19:30:05.950Z,0.55
2023-02-04T19:32:32.248Z,0.51
2023-02-04T19:34:58.527Z,0.57
2023-02-04T19:37:24.824Z,0.49
2023-02-04T19:39:51.138Z,0.47
2023-02-04T19:42:17.396Z,0.53
2023-02-04T19:44:43.921Z,0.57
2023-02-04T19:47:10.176Z,0.52
2023-02-04T19:49:36.433Z,0.53
2023-02-04T19:52:02.685Z,0.54
2023-02-04T19:54:28.958Z,0.51
2023-02-04T19:56:55.205Z,0.49
2023-02-04T19:59:21.769Z,0.66
2023-02-04T20:01:48.039Z,0.65
2023-02-04T20:04:14.306Z,0.55
2023-02-04T20:06:40.578Z,0.53
2023-02-04T20:09:06.826Z,0.49
2023-02-04T20:11:33.120Z,0.56
2023-02-04T20:13:59.386Z,0.58
2023-02-04T20:16:25.655Z,0.52
2023-02-04T20:18:51.916Z,0.52
2023-02-04T20:21:18.180Z,0.66
2023-02-04T20:23:44.437Z,0.65
2023-02-04T20:26:10.744Z,0.55
2023-02-04T20:28:37.013Z,0.61
2023-02-04T20:31:03.371Z,0.53
2023-02-04T20:33:29.726Z,0.48
2023-02-04T20:35:56.001Z,0.56
2023-02-04T20:38:22.272Z,0.49
2023-02-04T20:40:48.532Z,0.52
2023-02-04T20:43:14.819Z,0.64
2023-02-04T20:45:41.081Z,0.49
2023-02-04T20:48:07.334Z,0.56
2023-02-04T20:50:33.836Z,0.52
2023-02-04T20:53:00.104Z,0.57
2023-02-04T20:55:26.404Z,0.58
2023-02-04T20:57:52.687Z,0.64
2023-02-04T21:00:18.937Z,0.58
2023-02-04T21:02:45.199Z,0.50
2023-02-04T21:05:11.496Z,0.72
2023-02-04T21:07:37.757Z,0.60
2023-02-04T21:10:04.019Z,0.60
2023-02-04T21:12:30.480Z,0.54
2023-02-04T21:14:56.734Z,0.54
2023-02-04T21:17:23.125Z,0.53
2023-02-04T21:19:49.382Z,0.49
2023-02-04T21:22:15.661Z,0.50
2023-02-04T21:24:41.917Z,0.46
2023-02-04T21:27:08.170Z,0.56
2023-02-04T21:29:34.442Z,0.59
2023-02-04T21:32:00.718Z,0.52
2023-02-04T21:34:26.973Z,0.64
2023-02-04T21:36:53.282Z,0.50
2023-02-04T21:39:19.534Z,0.61
2023-02-04T21:41:45.782Z,0.52
2023-02-04T21:44:12.022Z,0.46
2023-02-04T21:46:38.318Z,0.55
2023-02-04T21:49:04.625Z,0.49
2023-02-04T21:51:30.920Z,0.51
2023-02-04T21:53:57.163Z,0.46
2023-02-04T21:56:23.683Z,0.62
2023-02-04T21:58:49.961Z,0.55
2023-02-04T22:01:16.271Z,0.59
2023-02-04T22:03:42.578Z,0.55
2023-02-04T22:06:08.857Z,0.59
2023-02-04T22:08:35.114Z,0.53
2023-02-04T22:11:01.376Z,0.52
2023-02-04T22:13:27.724Z,0.59
2023-02-04T22:15:54.299Z,0.44
2023-02-04T22:18:20.571Z,0.55
2023-02-04T22:20:46.829Z,0.55
2023-02-04T22:23:13.080Z,0.65
2023-02-04T22:25:39.336Z,0.51
2023-02-04T22:28:05.666Z,0.62
2023-02-04T22:30:31.972Z,0.50
2023-02-04T22:32:58.260Z,0.56
2023-02-04T22:35:24.554Z,0.53
2023-02-04T22:37:50.871Z,0.55
2023-02-04T22:40:17.149Z,0.59
2023-02-04T22:42:43.436Z,0.54
2023-02-04T22:45:09.724Z,0.46
2023-02-04T22:47:35.991Z,0.56
2023-02-04T22:50:02.241Z,0.54
2023-02-04T22:52:28.549Z,0.42
2023-02-04T22:54:54.802Z,0.59
2023-02-04T22:57:21.050Z,0.53
2023-02-04T22:59:47.440Z,0.53
2023-02-04T23:02:13.831Z,0.60
2023-02-04T23:04:41.169Z,0.51
2023-02-04T23:07:08.222Z,0.55
2023-02-04T23:09:34.464Z,0.53
2023-02-04T23:12:00.728Z,0.55
2023-02-04T23:14:27.106Z,0.61
2023-02-04T23:16:53.345Z,0.48
2023-02-04T23:19:19.588Z,0.52
2023-02-04T23:21:45.869Z,0.52
2023-02-04T23:24:12.123Z,0.53
2023-02-04T23:26:38.416Z,0.48
2023-02-04T23:29:04.698Z,0.52
2023-02-04T23:31:31.043Z,0.54
2023-02-04T23:33:57.367Z,0.48
2023-02-04T23:36:23.646Z,0.52
2023-02-04T23:38:50.170Z,0.54
2023-02-04T23:41:16.431Z,0.51
2023-02-04T23:43:42.711Z,0.57
2023-02-04T23:46:09.038Z,0.55
2023-02-04T23:48:35.350Z,0.49
2023-02-04T23:51:01.609Z,0.52
2023-02-04T23:53:27.881Z,0.48
2023-02-04T23:55:54.144Z,0.51
2023-02-04T23:58:20.374Z,0.54
